sensor_id;sensor_type;location;lat;lon;timestamp;P1;durP1;ratioP1;P2;durP2;ratioP2
15112;SDS011;7657;50.140;7.076;2022-08-21T00:00:11;6.72;;;3.05;;
15112;SDS011;7657;50.140;7.076;2022-08-21T00:02:44;5.78;;;3.08;;
15112;SDS011;7657;50.140;7.076;2022-08-21T00:05:12;5.68;;;2.88;;
15112;SDS011;7657;50.140;7.076;2022-08-21T00:07:40;7.65;;;3.35;;
15112;SDS011;7657;50.140;7.076;2022-08-21T00:10:07;6.68;;;3.20;;
15112;SDS011;7657;50.140;7.076;2022-08-21T00:12:35;8.50;;;3.20;;
15112;SDS011;7657;50.140;7.076;2022-08-21T00:15:03;6.22;;;2.78;;
15112;SDS011;7657;50.140;7.076;2022-08-21T00:17:32;6.95;;;2.95;;
15112;SDS011;7657;50.140;7.076;2022-08-21T00:19:59;5.82;;;2.80;;
15112;SDS011;7657;50.140;7.076;2022-08-21T00:22:26;5.28;;;2.67;;
15112;SDS011;7657;50.140;7.076;2022-08-21T00:24:53;9.27;;;2.88;;
15112;SDS011;7657;50.140;7.076;2022-08-21T00:27:20;3.95;;;2.67;;
15112;SDS011;7657;50.140;7.076;2022-08-21T00:29:47;4.50;;;2.70;;
15112;SDS011;7657;50.140;7.076;2022-08-21T00:32:18;5.90;;;3.08;;
15112;SDS011;7657;50.140;7.076;2022-08-21T00:34:48;5.70;;;2.72;;
15112;SDS011;7657;50.140;7.076;2022-08-21T00:37:15;6.90;;;3.08;;
15112;SDS011;7657;50.140;7.076;2022-08-21T00:39:42;10.48;;;3.30;;
15112;SDS011;7657;50.140;7.076;2022-08-21T00:42:09;6.82;;;2.85;;
15112;SDS011;7657;50.140;7.076;2022-08-21T00:44:39;6.57;;;2.95;;
15112;SDS011;7657;50.140;7.076;2022-08-21T00:47:07;4.90;;;2.70;;
15112;SDS011;7657;50.140;7.076;2022-08-21T00:49:34;4.82;;;2.92;;
15112;SDS011;7657;50.140;7.076;2022-08-21T00:52:03;10.82;;;3.13;;
15112;SDS011;7657;50.140;7.076;2022-08-21T00:54:32;6.95;;;2.70;;
15112;SDS011;7657;50.140;7.076;2022-08-21T00:57:00;6.68;;;3.10;;
15112;SDS011;7657;50.140;7.076;2022-08-21T00:59:31;6.75;;;2.75;;
15112;SDS011;7657;50.140;7.076;2022-08-21T01:02:02;4.70;;;2.47;;
15112;SDS011;7657;50.140;7.076;2022-08-21T01:04:30;9.65;;;3.20;;
15112;SDS011;7657;50.140;7.076;2022-08-21T01:06:56;6.63;;;3.05;;
15112;SDS011;7657;50.140;7.076;2022-08-21T01:09:25;5.82;;;2.85;;
15112;SDS011;7657;50.140;7.076;2022-08-21T01:11:52;6.20;;;2.83;;
15112;SDS011;7657;50.140;7.076;2022-08-21T01:14:19;8.52;;;2.88;;
15112;SDS011;7657;50.140;7.076;2022-08-21T01:16:47;6.80;;;3.10;;
15112;SDS011;7657;50.140;7.076;2022-08-21T01:19:17;7.85;;;3.15;;
15112;SDS011;7657;50.140;7.076;2022-08-21T01:21:47;6.78;;;3.10;;
15112;SDS011;7657;50.140;7.076;2022-08-21T01:24:14;5.53;;;2.55;;
15112;SDS011;7657;50.140;7.076;2022-08-21T01:26:41;6.30;;;3.10;;
15112;SDS011;7657;50.140;7.076;2022-08-21T01:29:09;5.70;;;2.53;;
15112;SDS011;7657;50.140;7.076;2022-08-21T01:31:40;5.45;;;2.67;;
15112;SDS011;7657;50.140;7.076;2022-08-21T01:34:10;4.82;;;2.60;;
15112;SDS011;7657;50.140;7.076;2022-08-21T01:36:37;6.57;;;2.95;;
15112;SDS011;7657;50.140;7.076;2022-08-21T01:39:05;6.53;;;2.75;;
15112;SDS011;7657;50.140;7.076;2022-08-21T01:41:32;4.68;;;2.67;;
15112;SDS011;7657;50.140;7.076;2022-08-21T01:43:59;7.05;;;2.78;;
15112;SDS011;7657;50.140;7.076;2022-08-21T01:46:26;6.57;;;2.67;;
15112;SDS011;7657;50.140;7.076;2022-08-21T01:48:53;5.10;;;3.17;;
15112;SDS011;7657;50.140;7.076;2022-08-21T01:51:20;5.00;;;2.85;;
15112;SDS011;7657;50.140;7.076;2022-08-21T01:53:47;3.25;;;2.63;;
15112;SDS011;7657;50.140;7.076;2022-08-21T01:56:16;4.20;;;2.83;;
15112;SDS011;7657;50.140;7.076;2022-08-21T01:58:44;8.65;;;3.40;;
15112;SDS011;7657;50.140;7.076;2022-08-21T02:01:12;6.22;;;2.83;;
15112;SDS011;7657;50.140;7.076;2022-08-21T02:03:39;5.97;;;2.30;;
15112;SDS011;7657;50.140;7.076;2022-08-21T02:06:07;5.38;;;2.50;;
15112;SDS011;7657;50.140;7.076;2022-08-21T02:08:38;6.30;;;3.03;;
15112;SDS011;7657;50.140;7.076;2022-08-21T02:11:05;8.07;;;2.92;;
15112;SDS011;7657;50.140;7.076;2022-08-21T02:13:33;3.05;;;2.40;;
15112;SDS011;7657;50.140;7.076;2022-08-21T02:16:00;7.45;;;2.95;;
15112;SDS011;7657;50.140;7.076;2022-08-21T02:18:28;5.57;;;2.67;;
15112;SDS011;7657;50.140;7.076;2022-08-21T02:20:55;4.10;;;2.75;;
15112;SDS011;7657;50.140;7.076;2022-08-21T02:23:22;6.40;;;2.50;;
15112;SDS011;7657;50.140;7.076;2022-08-21T02:25:49;4.80;;;2.88;;
15112;SDS011;7657;50.140;7.076;2022-08-21T02:28:16;6.25;;;2.50;;
15112;SDS011;7657;50.140;7.076;2022-08-21T02:30:46;5.82;;;2.75;;
15112;SDS011;7657;50.140;7.076;2022-08-21T02:33:14;6.00;;;2.58;;
15112;SDS011;7657;50.140;7.076;2022-08-21T02:35:42;4.30;;;2.22;;
15112;SDS011;7657;50.140;7.076;2022-08-21T02:38:11;7.70;;;3.03;;
15112;SDS011;7657;50.140;7.076;2022-08-21T02:40:41;7.38;;;2.65;;
15112;SDS011;7657;50.140;7.076;2022-08-21T02:43:10;6.68;;;2.70;;
15112;SDS011;7657;50.140;7.076;2022-08-21T02:45:37;4.78;;;2.80;;
15112;SDS011;7657;50.140;7.076;2022-08-21T02:48:07;4.07;;;2.53;;
15112;SDS011;7657;50.140;7.076;2022-08-21T02:50:35;4.68;;;2.65;;
15112;SDS011;7657;50.140;7.076;2022-08-21T02:53:05;11.10;;;3.28;;
15112;SDS011;7657;50.140;7.076;2022-08-21T02:55:34;5.30;;;2.70;;
15112;SDS011;7657;50.140;7.076;2022-08-21T02:58:03;6.45;;;2.80;;
15112;SDS011;7657;50.140;7.076;2022-08-21T03:00:33;6.00;;;2.92;;
15112;SDS011;7657;50.140;7.076;2022-08-21T03:03:01;6.55;;;3.08;;
15112;SDS011;7657;50.140;7.076;2022-08-21T03:05:30;8.48;;;3.50;;
15112;SDS011;7657;50.140;7.076;2022-08-21T03:07:59;7.47;;;3.08;;
15112;SDS011;7657;50.140;7.076;2022-08-21T03:10:27;4.80;;;2.97;;
15112;SDS011;7657;50.140;7.076;2022-08-21T03:12:55;7.10;;;2.97;;
15112;SDS011;7657;50.140;7.076;2022-08-21T03:15:23;8.50;;;2.78;;
15112;SDS011;7657;50.140;7.076;2022-08-21T03:17:50;6.78;;;2.92;;
15112;SDS011;7657;50.140;7.076;2022-08-21T03:20:20;9.25;;;3.20;;
15112;SDS011;7657;50.140;7.076;2022-08-21T03:22:51;6.40;;;3.05;;
15112;SDS011;7657;50.140;7.076;2022-08-21T03:25:19;5.22;;;3.10;;
15112;SDS011;7657;50.140;7.076;2022-08-21T03:27:46;7.05;;;3.33;;
15112;SDS011;7657;50.140;7.076;2022-08-21T03:30:14;5.65;;;2.92;;
15112;SDS011;7657;50.140;7.076;2022-08-21T03:32:43;6.63;;;3.05;;
15112;SDS011;7657;50.140;7.076;2022-08-21T03:35:11;8.27;;;3.10;;
15112;SDS011;7657;50.140;7.076;2022-08-21T03:37:39;5.95;;;2.90;;
15112;SDS011;7657;50.140;7.076;2022-08-21T03:40:08;5.32;;;3.05;;
15112;SDS011;7657;50.140;7.076;2022-08-21T03:42:37;7.22;;;3.40;;
15112;SDS011;7657;50.140;7.076;2022-08-21T03:45:05;6.40;;;3.10;;
15112;SDS011;7657;50.140;7.076;2022-08-21T03:47:33;5.68;;;3.05;;
15112;SDS011;7657;50.140;7.076;2022-08-21T03:50:00;9.18;;;3.05;;
15112;SDS011;7657;50.140;7.076;2022-08-21T03:52:28;6.22;;;2.88;;
15112;SDS011;7657;50.140;7.076;2022-08-21T03:54:55;7.10;;;3.03;;
15112;SDS011;7657;50.140;7.076;2022-08-21T03:57:23;6.40;;;3.13;;
15112;SDS011;7657;50.140;7.076;2022-08-21T03:59:50;5.25;;;2.92;;
15112;SDS011;7657;50.140;7.076;2022-08-21T04:02:17;5.68;;;2.55;;
15112;SDS011;7657;50.140;7.076;2022-08-21T04:04:47;3.75;;;2.50;;
15112;SDS011;7657;50.140;7.076;2022-08-21T04:07:14;6.47;;;2.80;;
15112;SDS011;7657;50.140;7.076;2022-08-21T04:09:42;5.13;;;2.47;;
15112;SDS011;7657;50.140;7.076;2022-08-21T04:12:09;5.13;;;2.50;;
15112;SDS011;7657;50.140;7.076;2022-08-21T04:14:38;7.20;;;2.97;;
15112;SDS011;7657;50.140;7.076;2022-08-21T04:17:05;5.38;;;2.90;;
15112;SDS011;7657;50.140;7.076;2022-08-21T04:19:32;6.75;;;3.10;;
15112;SDS011;7657;50.140;7.076;2022-08-21T04:21:59;6.03;;;2.97;;
15112;SDS011;7657;50.140;7.076;2022-08-21T04:24:26;7.15;;;2.88;;
15112;SDS011;7657;50.140;7.076;2022-08-21T04:26:53;5.40;;;2.85;;
15112;SDS011;7657;50.140;7.076;2022-08-21T04:29:20;4.47;;;3.05;;
15112;SDS011;7657;50.140;7.076;2022-08-21T04:31:48;5.07;;;2.67;;
15112;SDS011;7657;50.140;7.076;2022-08-21T04:34:17;6.78;;;2.90;;
15112;SDS011;7657;50.140;7.076;2022-08-21T04:36:44;8.10;;;3.17;;
15112;SDS011;7657;50.140;7.076;2022-08-21T04:39:11;5.35;;;2.83;;
15112;SDS011;7657;50.140;7.076;2022-08-21T04:41:38;9.40;;;3.17;;
15112;SDS011;7657;50.140;7.076;2022-08-21T04:44:06;4.82;;;2.55;;
15112;SDS011;7657;50.140;7.076;2022-08-21T04:46:33;5.97;;;2.85;;
15112;SDS011;7657;50.140;7.076;2022-08-21T04:49:02;9.20;;;2.95;;
15112;SDS011;7657;50.140;7.076;2022-08-21T04:51:29;7.63;;;3.15;;
15112;SDS011;7657;50.140;7.076;2022-08-21T04:54:00;9.10;;;3.10;;
15112;SDS011;7657;50.140;7.076;2022-08-21T04:56:34;6.82;;;2.97;;
15112;SDS011;7657;50.140;7.076;2022-08-21T04:59:04;8.25;;;3.65;;
15112;SDS011;7657;50.140;7.076;2022-08-21T05:01:36;6.45;;;2.75;;
15112;SDS011;7657;50.140;7.076;2022-08-21T05:04:05;7.65;;;2.60;;
15112;SDS011;7657;50.140;7.076;2022-08-21T05:06:36;5.50;;;2.63;;
15112;SDS011;7657;50.140;7.076;2022-08-21T05:09:06;7.43;;;3.03;;
15112;SDS011;7657;50.140;7.076;2022-08-21T05:11:34;7.93;;;2.90;;
15112;SDS011;7657;50.140;7.076;2022-08-21T05:14:02;7.70;;;3.03;;
15112;SDS011;7657;50.140;7.076;2022-08-21T05:16:29;7.45;;;3.08;;
15112;SDS011;7657;50.140;7.076;2022-08-21T05:18:56;5.85;;;2.80;;
15112;SDS011;7657;50.140;7.076;2022-08-21T05:21:25;8.75;;;3.03;;
15112;SDS011;7657;50.140;7.076;2022-08-21T05:23:52;6.15;;;2.88;;
15112;SDS011;7657;50.140;7.076;2022-08-21T05:26:19;6.68;;;3.65;;
15112;SDS011;7657;50.140;7.076;2022-08-21T05:28:46;7.15;;;2.92;;
15112;SDS011;7657;50.140;7.076;2022-08-21T05:31:12;6.57;;;2.88;;
15112;SDS011;7657;50.140;7.076;2022-08-21T05:33:39;3.05;;;2.50;;
15112;SDS011;7657;50.140;7.076;2022-08-21T05:36:06;6.47;;;2.63;;
15112;SDS011;7657;50.140;7.076;2022-08-21T05:38:35;8.30;;;3.17;;
15112;SDS011;7657;50.140;7.076;2022-08-21T05:41:02;6.22;;;2.90;;
15112;SDS011;7657;50.140;7.076;2022-08-21T05:43:29;4.05;;;2.65;;
15112;SDS011;7657;50.140;7.076;2022-08-21T05:45:58;4.20;;;2.35;;
15112;SDS011;7657;50.140;7.076;2022-08-21T05:48:25;6.00;;;2.80;;
15112;SDS011;7657;50.140;7.076;2022-08-21T05:50:52;8.57;;;2.92;;
15112;SDS011;7657;50.140;7.076;2022-08-21T05:53:20;4.78;;;2.40;;
15112;SDS011;7657;50.140;7.076;2022-08-21T05:55:49;5.43;;;2.50;;
15112;SDS011;7657;50.140;7.076;2022-08-21T05:58:16;5.18;;;2.72;;
15112;SDS011;7657;50.140;7.076;2022-08-21T06:00:45;4.25;;;2.88;;
15112;SDS011;7657;50.140;7.076;2022-08-21T06:03:13;6.93;;;2.55;;
15112;SDS011;7657;50.140;7.076;2022-08-21T06:05:42;4.57;;;2.75;;
15112;SDS011;7657;50.140;7.076;2022-08-21T06:08:10;7.72;;;3.00;;
15112;SDS011;7657;50.140;7.076;2022-08-21T06:10:37;5.88;;;2.92;;
15112;SDS011;7657;50.140;7.076;2022-08-21T06:13:06;7.15;;;3.05;;
15112;SDS011;7657;50.140;7.076;2022-08-21T06:15:33;3.38;;;2.60;;
15112;SDS011;7657;50.140;7.076;2022-08-21T06:18:00;4.65;;;2.70;;
15112;SDS011;7657;50.140;7.076;2022-08-21T06:20:27;4.65;;;2.60;;
15112;SDS011;7657;50.140;7.076;2022-08-21T06:22:54;6.03;;;2.40;;
15112;SDS011;7657;50.140;7.076;2022-08-21T06:25:21;3.83;;;2.47;;
15112;SDS011;7657;50.140;7.076;2022-08-21T06:27:49;7.68;;;2.55;;
15112;SDS011;7657;50.140;7.076;2022-08-21T06:30:18;4.82;;;2.60;;
15112;SDS011;7657;50.140;7.076;2022-08-21T06:32:45;4.57;;;2.60;;
15112;SDS011;7657;50.140;7.076;2022-08-21T06:35:12;5.63;;;2.63;;
15112;SDS011;7657;50.140;7.076;2022-08-21T06:37:39;7.68;;;3.10;;
15112;SDS011;7657;50.140;7.076;2022-08-21T06:40:07;7.10;;;2.95;;
15112;SDS011;7657;50.140;7.076;2022-08-21T06:42:34;6.18;;;2.60;;
15112;SDS011;7657;50.140;7.076;2022-08-21T06:45:01;5.80;;;2.83;;
15112;SDS011;7657;50.140;7.076;2022-08-21T06:47:30;4.93;;;2.85;;
15112;SDS011;7657;50.140;7.076;2022-08-21T06:49:57;3.67;;;2.40;;
15112;SDS011;7657;50.140;7.076;2022-08-21T06:52:24;7.97;;;3.03;;
15112;SDS011;7657;50.140;7.076;2022-08-21T06:54:51;5.60;;;2.70;;
15112;SDS011;7657;50.140;7.076;2022-08-21T06:57:18;5.32;;;2.72;;
15112;SDS011;7657;50.140;7.076;2022-08-21T06:59:45;4.68;;;2.50;;
15112;SDS011;7657;50.140;7.076;2022-08-21T07:02:12;4.97;;;2.60;;
15112;SDS011;7657;50.140;7.076;2022-08-21T07:04:40;5.55;;;2.78;;
15112;SDS011;7657;50.140;7.076;2022-08-21T07:07:07;8.15;;;2.40;;
15112;SDS011;7657;50.140;7.076;2022-08-21T07:09:34;4.88;;;2.50;;
15112;SDS011;7657;50.140;7.076;2022-08-21T07:12:01;5.55;;;2.25;;
15112;SDS011;7657;50.140;7.076;2022-08-21T07:14:29;4.75;;;2.50;;
15112;SDS011;7657;50.140;7.076;2022-08-21T07:16:56;4.80;;;2.40;;
15112;SDS011;7657;50.140;7.076;2022-08-21T07:19:23;4.03;;;2.13;;
15112;SDS011;7657;50.140;7.076;2022-08-21T07:21:51;4.72;;;2.53;;
15112;SDS011;7657;50.140;7.076;2022-08-21T07:24:21;4.00;;;2.20;;
15112;SDS011;7657;50.140;7.076;2022-08-21T07:26:48;4.57;;;2.03;;
15112;SDS011;7657;50.140;7.076;2022-08-21T07:29:15;4.50;;;2.20;;
15112;SDS011;7657;50.140;7.076;2022-08-21T07:31:42;5.78;;;2.72;;
15112;SDS011;7657;50.140;7.076;2022-08-21T07:34:09;5.72;;;2.42;;
15112;SDS011;7657;50.140;7.076;2022-08-21T07:36:36;6.38;;;2.45;;
15112;SDS011;7657;50.140;7.076;2022-08-21T07:39:04;3.65;;;2.25;;
15112;SDS011;7657;50.140;7.076;2022-08-21T07:41:33;6.90;;;2.60;;
15112;SDS011;7657;50.140;7.076;2022-08-21T07:44:00;6.10;;;2.40;;
15112;SDS011;7657;50.140;7.076;2022-08-21T07:46:28;6.45;;;2.50;;
15112;SDS011;7657;50.140;7.076;2022-08-21T07:48:55;5.95;;;2.40;;
15112;SDS011;7657;50.140;7.076;2022-08-21T07:51:23;3.75;;;2.17;;
15112;SDS011;7657;50.140;7.076;2022-08-21T07:53:53;6.40;;;2.17;;
15112;SDS011;7657;50.140;7.076;2022-08-21T07:56:22;5.72;;;2.67;;
15112;SDS011;7657;50.140;7.076;2022-08-21T07:58:49;5.80;;;2.15;;
15112;SDS011;7657;50.140;7.076;2022-08-21T08:01:16;4.93;;;2.65;;
15112;SDS011;7657;50.140;7.076;2022-08-21T08:03:43;7.43;;;2.53;;
15112;SDS011;7657;50.140;7.076;2022-08-21T08:06:11;5.22;;;2.40;;
15112;SDS011;7657;50.140;7.076;2022-08-21T08:08:39;7.18;;;2.30;;
15112;SDS011;7657;50.140;7.076;2022-08-21T08:11:06;5.88;;;2.67;;
15112;SDS011;7657;50.140;7.076;2022-08-21T08:13:39;5.50;;;2.42;;
15112;SDS011;7657;50.140;7.076;2022-08-21T08:16:06;9.55;;;3.03;;
15112;SDS011;7657;50.140;7.076;2022-08-21T08:18:34;5.22;;;2.55;;
15112;SDS011;7657;50.140;7.076;2022-08-21T08:21:01;6.45;;;2.60;;
15112;SDS011;7657;50.140;7.076;2022-08-21T08:23:27;5.72;;;2.30;;
15112;SDS011;7657;50.140;7.076;2022-08-21T08:25:55;3.35;;;2.00;;
15112;SDS011;7657;50.140;7.076;2022-08-21T08:28:22;4.65;;;2.28;;
15112;SDS011;7657;50.140;7.076;2022-08-21T08:30:51;4.43;;;1.92;;
15112;SDS011;7657;50.140;7.076;2022-08-21T08:33:18;9.15;;;2.10;;
15112;SDS011;7657;50.140;7.076;2022-08-21T08:35:46;5.38;;;2.20;;
15112;SDS011;7657;50.140;7.076;2022-08-21T08:38:15;9.10;;;2.70;;
15112;SDS011;7657;50.140;7.076;2022-08-21T08:40:46;6.80;;;2.08;;
15112;SDS011;7657;50.140;7.076;2022-08-21T08:43:18;3.60;;;1.95;;
15112;SDS011;7657;50.140;7.076;2022-08-21T08:45:48;7.03;;;2.30;;
15112;SDS011;7657;50.140;7.076;2022-08-21T08:48:26;7.13;;;2.63;;
15112;SDS011;7657;50.140;7.076;2022-08-21T08:51:06;6.55;;;2.35;;
15112;SDS011;7657;50.140;7.076;2022-08-21T08:53:43;5.57;;;2.47;;
15112;SDS011;7657;50.140;7.076;2022-08-21T08:56:15;4.40;;;1.88;;
15112;SDS011;7657;50.140;7.076;2022-08-21T08:58:48;5.47;;;1.90;;
15112;SDS011;7657;50.140;7.076;2022-08-21T09:01:19;4.22;;;2.00;;
15112;SDS011;7657;50.140;7.076;2022-08-21T09:03:46;6.05;;;2.53;;
15112;SDS011;7657;50.140;7.076;2022-08-21T09:06:20;5.15;;;1.83;;
15112;SDS011;7657;50.140;7.076;2022-08-21T09:09:17;3.40;;;1.70;;
15112;SDS011;7657;50.140;7.076;2022-08-21T09:12:04;6.72;;;2.13;;
15112;SDS011;7657;50.140;7.076;2022-08-21T09:14:40;4.80;;;1.85;;
15112;SDS011;7657;50.140;7.076;2022-08-21T09:17:27;4.10;;;1.95;;
15112;SDS011;7657;50.140;7.076;2022-08-21T09:20:06;4.05;;;1.70;;
15112;SDS011;7657;50.140;7.076;2022-08-21T09:22:43;3.83;;;1.90;;
15112;SDS011;7657;50.140;7.076;2022-08-21T09:25:22;4.30;;;1.85;;
15112;SDS011;7657;50.140;7.076;2022-08-21T09:27:52;3.28;;;1.98;;
15112;SDS011;7657;50.140;7.076;2022-08-21T09:30:20;2.90;;;1.83;;
15112;SDS011;7657;50.140;7.076;2022-08-21T09:32:53;4.78;;;1.98;;
15112;SDS011;7657;50.140;7.076;2022-08-21T09:35:20;3.00;;;1.80;;
15112;SDS011;7657;50.140;7.076;2022-08-21T09:37:50;3.40;;;1.70;;
15112;SDS011;7657;50.140;7.076;2022-08-21T09:40:20;5.20;;;2.08;;
15112;SDS011;7657;50.140;7.076;2022-08-21T09:42:56;4.68;;;2.10;;
15112;SDS011;7657;50.140;7.076;2022-08-21T09:45:24;3.42;;;1.85;;
15112;SDS011;7657;50.140;7.076;2022-08-21T09:47:52;4.63;;;2.00;;
15112;SDS011;7657;50.140;7.076;2022-08-21T09:50:20;2.45;;;1.90;;
15112;SDS011;7657;50.140;7.076;2022-08-21T09:52:50;5.95;;;2.00;;
15112;SDS011;7657;50.140;7.076;2022-08-21T09:55:21;5.70;;;2.25;;
15112;SDS011;7657;50.140;7.076;2022-08-21T09:58:13;3.15;;;2.00;;
15112;SDS011;7657;50.140;7.076;2022-08-21T10:00:40;6.47;;;2.30;;
15112;SDS011;7657;50.140;7.076;2022-08-21T10:03:14;3.45;;;1.92;;
15112;SDS011;7657;50.140;7.076;2022-08-21T10:05:55;5.78;;;2.00;;
15112;SDS011;7657;50.140;7.076;2022-08-21T10:08:25;4.75;;;1.90;;
15112;SDS011;7657;50.140;7.076;2022-08-21T10:10:54;6.10;;;2.03;;
15112;SDS011;7657;50.140;7.076;2022-08-21T10:13:28;3.38;;;2.00;;
15112;SDS011;7657;50.140;7.076;2022-08-21T10:16:11;4.78;;;1.90;;
15112;SDS011;7657;50.140;7.076;2022-08-21T10:18:46;4.32;;;1.67;;
15112;SDS011;7657;50.140;7.076;2022-08-21T10:21:22;6.50;;;1.67;;
15112;SDS011;7657;50.140;7.076;2022-08-21T10:23:56;3.03;;;1.95;;
15112;SDS011;7657;50.140;7.076;2022-08-21T10:26:33;4.68;;;1.80;;
15112;SDS011;7657;50.140;7.076;2022-08-21T10:29:12;4.80;;;1.75;;
15112;SDS011;7657;50.140;7.076;2022-08-21T10:31:51;3.38;;;1.90;;
15112;SDS011;7657;50.140;7.076;2022-08-21T10:34:28;5.97;;;1.92;;
15112;SDS011;7657;50.140;7.076;2022-08-21T10:37:10;3.70;;;2.00;;
15112;SDS011;7657;50.140;7.076;2022-08-21T10:39:46;6.40;;;1.83;;
15112;SDS011;7657;50.140;7.076;2022-08-21T10:42:27;3.65;;;1.92;;
15112;SDS011;7657;50.140;7.076;2022-08-21T10:45:02;3.55;;;1.80;;
15112;SDS011;7657;50.140;7.076;2022-08-21T10:47:46;3.40;;;1.92;;
15112;SDS011;7657;50.140;7.076;2022-08-21T10:50:19;2.22;;;1.48;;
15112;SDS011;7657;50.140;7.076;2022-08-21T10:53:05;5.43;;;2.05;;
15112;SDS011;7657;50.140;7.076;2022-08-21T10:55:50;3.58;;;1.98;;
15112;SDS011;7657;50.140;7.076;2022-08-21T10:58:25;2.88;;;1.90;;
15112;SDS011;7657;50.140;7.076;2022-08-21T11:00:55;4.00;;;1.90;;
15112;SDS011;7657;50.140;7.076;2022-08-21T11:03:28;3.42;;;1.83;;
15112;SDS011;7657;50.140;7.076;2022-08-21T11:06:02;5.75;;;2.15;;
15112;SDS011;7657;50.140;7.076;2022-08-21T11:08:36;4.38;;;2.10;;
15112;SDS011;7657;50.140;7.076;2022-08-21T11:11:08;5.25;;;1.98;;
15112;SDS011;7657;50.140;7.076;2022-08-21T11:13:40;2.65;;;1.65;;
15112;SDS011;7657;50.140;7.076;2022-08-21T11:16:15;5.80;;;2.30;;
15112;SDS011;7657;50.140;7.076;2022-08-21T11:18:49;3.72;;;2.00;;
15112;SDS011;7657;50.140;7.076;2022-08-21T11:21:25;3.35;;;1.80;;
15112;SDS011;7657;50.140;7.076;2022-08-21T11:23:59;5.18;;;1.80;;
15112;SDS011;7657;50.140;7.076;2022-08-21T11:26:37;4.15;;;2.05;;
15112;SDS011;7657;50.140;7.076;2022-08-21T11:29:10;5.03;;;2.22;;
15112;SDS011;7657;50.140;7.076;2022-08-21T11:31:47;4.65;;;2.22;;
15112;SDS011;7657;50.140;7.076;2022-08-21T11:34:32;3.15;;;1.70;;
15112;SDS011;7657;50.140;7.076;2022-08-21T11:37:15;4.20;;;1.80;;
15112;SDS011;7657;50.140;7.076;2022-08-21T11:40:02;2.75;;;1.70;;
15112;SDS011;7657;50.140;7.076;2022-08-21T11:42:38;3.30;;;1.70;;
15112;SDS011;7657;50.140;7.076;2022-08-21T11:45:15;4.20;;;1.90;;
15112;SDS011;7657;50.140;7.076;2022-08-21T11:47:52;2.72;;;1.50;;
15112;SDS011;7657;50.140;7.076;2022-08-21T11:50:27;3.97;;;1.95;;
15112;SDS011;7657;50.140;7.076;2022-08-21T11:52:59;4.00;;;1.90;;
15112;SDS011;7657;50.140;7.076;2022-08-21T11:55:39;5.10;;;1.63;;
15112;SDS011;7657;50.140;7.076;2022-08-21T11:58:11;4.05;;;1.77;;
15112;SDS011;7657;50.140;7.076;2022-08-21T12:00:43;3.80;;;2.13;;
15112;SDS011;7657;50.140;7.076;2022-08-21T12:03:16;4.03;;;1.90;;
15112;SDS011;7657;50.140;7.076;2022-08-21T12:05:52;2.72;;;1.42;;
15112;SDS011;7657;50.140;7.076;2022-08-21T12:08:29;2.80;;;1.77;;
15112;SDS011;7657;50.140;7.076;2022-08-21T12:10:59;2.92;;;2.00;;
15112;SDS011;7657;50.140;7.076;2022-08-21T12:13:30;2.78;;;1.90;;
15112;SDS011;7657;50.140;7.076;2022-08-21T12:16:05;3.50;;;1.70;;
15112;SDS011;7657;50.140;7.076;2022-08-21T12:18:33;2.80;;;1.65;;
15112;SDS011;7657;50.140;7.076;2022-08-21T12:21:05;4.15;;;1.88;;
15112;SDS011;7657;50.140;7.076;2022-08-21T12:23:47;2.55;;;1.80;;
15112;SDS011;7657;50.140;7.076;2022-08-21T12:26:26;2.58;;;1.77;;
15112;SDS011;7657;50.140;7.076;2022-08-21T12:29:03;4.03;;;1.45;;
15112;SDS011;7657;50.140;7.076;2022-08-21T12:31:46;3.45;;;1.50;;
15112;SDS011;7657;50.140;7.076;2022-08-21T12:34:15;5.07;;;1.90;;
15112;SDS011;7657;50.140;7.076;2022-08-21T12:36:43;3.65;;;1.88;;
15112;SDS011;7657;50.140;7.076;2022-08-21T12:39:15;2.83;;;1.63;;
15112;SDS011;7657;50.140;7.076;2022-08-21T12:41:48;2.03;;;1.73;;
15112;SDS011;7657;50.140;7.076;2022-08-21T12:44:17;4.20;;;1.50;;
15112;SDS011;7657;50.140;7.076;2022-08-21T12:46:51;3.80;;;1.70;;
15112;SDS011;7657;50.140;7.076;2022-08-21T12:49:24;4.28;;;1.88;;
15112;SDS011;7657;50.140;7.076;2022-08-21T12:51:56;2.50;;;1.50;;
15112;SDS011;7657;50.140;7.076;2022-08-21T12:54:29;3.28;;;1.83;;
15112;SDS011;7657;50.140;7.076;2022-08-21T12:56:59;1.85;;;1.48;;
15112;SDS011;7657;50.140;7.076;2022-08-21T12:59:27;4.93;;;1.85;;
15112;SDS011;7657;50.140;7.076;2022-08-21T13:01:54;1.55;;;1.20;;
15112;SDS011;7657;50.140;7.076;2022-08-21T13:04:25;2.95;;;1.50;;
15112;SDS011;7657;50.140;7.076;2022-08-21T13:06:58;2.58;;;1.67;;
15112;SDS011;7657;50.140;7.076;2022-08-21T13:09:27;3.47;;;1.75;;
15112;SDS011;7657;50.140;7.076;2022-08-21T13:11:57;4.07;;;1.60;;
15112;SDS011;7657;50.140;7.076;2022-08-21T13:14:27;1.95;;;1.40;;
15112;SDS011;7657;50.140;7.076;2022-08-21T13:16:57;3.15;;;1.60;;
15112;SDS011;7657;50.140;7.076;2022-08-21T13:19:25;4.10;;;1.42;;
15112;SDS011;7657;50.140;7.076;2022-08-21T13:21:54;3.30;;;1.52;;
15112;SDS011;7657;50.140;7.076;2022-08-21T13:24:22;1.75;;;1.40;;
15112;SDS011;7657;50.140;7.076;2022-08-21T13:26:52;5.57;;;1.83;;
15112;SDS011;7657;50.140;7.076;2022-08-21T13:29:21;2.80;;;1.40;;
15112;SDS011;7657;50.140;7.076;2022-08-21T13:31:51;3.00;;;1.52;;
15112;SDS011;7657;50.140;7.076;2022-08-21T13:34:20;3.30;;;1.70;;
15112;SDS011;7657;50.140;7.076;2022-08-21T13:36:50;2.88;;;1.58;;
15112;SDS011;7657;50.140;7.076;2022-08-21T13:39:20;3.65;;;1.77;;
15112;SDS011;7657;50.140;7.076;2022-08-21T13:41:49;1.95;;;1.38;;
15112;SDS011;7657;50.140;7.076;2022-08-21T13:44:23;2.40;;;1.40;;
15112;SDS011;7657;50.140;7.076;2022-08-21T13:46:57;4.38;;;1.58;;
15112;SDS011;7657;50.140;7.076;2022-08-21T13:49:29;3.28;;;1.60;;
15112;SDS011;7657;50.140;7.076;2022-08-21T13:51:58;3.15;;;1.48;;
15112;SDS011;7657;50.140;7.076;2022-08-21T13:54:26;4.43;;;1.80;;
15112;SDS011;7657;50.140;7.076;2022-08-21T13:56:59;3.08;;;1.83;;
15112;SDS011;7657;50.140;7.076;2022-08-21T13:59:28;3.67;;;1.70;;
15112;SDS011;7657;50.140;7.076;2022-08-21T14:01:57;3.08;;;1.70;;
15112;SDS011;7657;50.140;7.076;2022-08-21T14:04:31;2.45;;;1.50;;
15112;SDS011;7657;50.140;7.076;2022-08-21T14:07:01;3.22;;;1.40;;
15112;SDS011;7657;50.140;7.076;2022-08-21T14:09:32;2.80;;;1.55;;
15112;SDS011;7657;50.140;7.076;2022-08-21T14:12:02;3.00;;;1.58;;
15112;SDS011;7657;50.140;7.076;2022-08-21T14:14:40;3.22;;;1.48;;
15112;SDS011;7657;50.140;7.076;2022-08-21T14:17:09;2.35;;;1.40;;
15112;SDS011;7657;50.140;7.076;2022-08-21T14:19:41;1.58;;;1.35;;
15112;SDS011;7657;50.140;7.076;2022-08-21T14:22:23;2.00;;;1.40;;
15112;SDS011;7657;50.140;7.076;2022-08-21T14:25:04;1.67;;;1.52;;
15112;SDS011;7657;50.140;7.076;2022-08-21T14:27:34;2.45;;;1.70;;
15112;SDS011;7657;50.140;7.076;2022-08-21T14:30:12;2.83;;;1.50;;
15112;SDS011;7657;50.140;7.076;2022-08-21T14:32:42;3.00;;;1.70;;
15112;SDS011;7657;50.140;7.076;2022-08-21T14:35:09;2.80;;;1.63;;
15112;SDS011;7657;50.140;7.076;2022-08-21T14:37:36;2.38;;;1.35;;
15112;SDS011;7657;50.140;7.076;2022-08-21T14:40:04;2.55;;;1.55;;
15112;SDS011;7657;50.140;7.076;2022-08-21T14:42:31;2.03;;;1.60;;
15112;SDS011;7657;50.140;7.076;2022-08-21T14:45:00;2.05;;;1.40;;
15112;SDS011;7657;50.140;7.076;2022-08-21T14:47:32;1.80;;;1.70;;
15112;SDS011;7657;50.140;7.076;2022-08-21T14:49:59;1.33;;;1.23;;
15112;SDS011;7657;50.140;7.076;2022-08-21T14:52:26;3.55;;;1.70;;
15112;SDS011;7657;50.140;7.076;2022-08-21T14:54:53;3.20;;;1.55;;
15112;SDS011;7657;50.140;7.076;2022-08-21T14:57:20;2.10;;;1.60;;
15112;SDS011;7657;50.140;7.076;2022-08-21T14:59:47;2.55;;;1.75;;
15112;SDS011;7657;50.140;7.076;2022-08-21T15:02:14;2.80;;;1.60;;
15112;SDS011;7657;50.140;7.076;2022-08-21T15:04:42;2.17;;;1.48;;
15112;SDS011;7657;50.140;7.076;2022-08-21T15:07:09;1.83;;;1.40;;
15112;SDS011;7657;50.140;7.076;2022-08-21T15:09:36;3.17;;;1.55;;
15112;SDS011;7657;50.140;7.076;2022-08-21T15:12:04;2.38;;;1.60;;
15112;SDS011;7657;50.140;7.076;2022-08-21T15:14:33;2.80;;;1.88;;
15112;SDS011;7657;50.140;7.076;2022-08-21T15:17:05;5.43;;;1.73;;